Jackson, MS

2:37 PM CDT on March 26, 2015 (GMT -0500)
Jackson-Evers International | Change Station
CLOSE
Current Station
Airport
Location: Jackson,
Elevation: 328 ft
Nearby Weather Stations
Active Advisory: Flood Warning

Elev 328 ft 32.32 °N, 90.08 °W | Updated 43 minutes ago

Overcast
Overcast
76 °F
Feels Like 76 °F
N
8
Wind Variable Wind from West

Today
High -- | Low -- °F
--% Chance of Precip.
Yesterday
High -- | Low -- °F
Precip. -- in
6:56 AM 7:16 PM
Waxing Crescent, 45% visible
Pressure 29.83 in
Visibility 10.0 miles
Clouds Few 4500 ft
Mostly Cloudy 5500 ft
Mostly Cloudy 7500 ft
Mostly Cloudy 25000 ft
Dew Point 57 °F
Humidity 52%
Rainfall 0.00 in
Snow Depth Not available.
UV 5 out of 12
Pollen 9.60 out of 12
Air Quality Not available.
Flu Activity Not available.
METAR KJAN 261854Z 26007KT 10SM FEW045 BKN055 BKN075 BKN250 24/14 A2984 RMK AO2 SLP101 T02440139

More Conditions Fewer Conditions

Pressure 29.83 in
Visibility 10.0 miles
Clouds Few 4500 ft
Mostly Cloudy 5500 ft
Mostly Cloudy 7500 ft
Mostly Cloudy 25000 ft
Dew Point 57 °F
Humidity 52%
Rainfall 0.00 in
Snow Depth Not available.
UV 5 out of 12
Pollen 9.60 out of 12
Air Quality Not available.
Flu Activity Not available.
METAR KJAN 261854Z 26007KT 10SM FEW045 BKN055 BKN075 BKN250 24/14 A2984 RMK AO2 SLP101 T02440139

More Conditions Fewer Conditions

10-Day Weather Forecast

Almanac

Astronomy

Mar. 26, 2015 Rise Set
Actual Time
Civil Twilight
Nautical Twilight
Astronomical Twilight
Moon
Length of Visible Light
Length of Day
Tomorrow will be .
, % of the Moon is Illuminated

Today's Extremes

State Highs State Lows

Community

WunderPhotos

Upload Photos

1,808,607 photos uploaded!

WunderBlogs® & News

Nearby

Air Quality

  Air Quality AQ Index Pollutant
Not available.

Snow Depth

Station Depth Elevation

Earthquake Activity

City Distance Mag. Time & Date
Minimum magnitude displayed is 2.5.

Coastal Water Temperatures

Place Temperature

Stations

Nearby Weather Stations

Station Location Temp. Windchill Dew Point Humidity Wind Precip. Elev Updated Type
                   
Flood Warning
Statement as of 9:43 AM CDT on March 26, 2015

... Flood Warning extended until late Monday night...

The Flood Warning continues for
the Big Black River near Bovina
* until late Monday night.
* At 9:15 am Thursday the stage was 30.0 feet.
* Minor flooding is occurring and minor flooding is forecast.
* Flood stage is 28.0 feet.
* Forecast... the river will continue falling and will fall below
flood stage by early Monday afternoon.
* Impact... at 28.0 feet... low-lying agricultural land near the river
begins to flood.


              Flood observed forecast 7 am crest
location stg stg day time Fri Sat sun crest time date

Lower Big Black River
Bovina 28 30.0 Thu 09 am 29.4 28.8 28.3 falling




Lat... Lon 3217 9093 3224 9078 3256 9064 3245 9052
      3218 9065 3204 9102